INFORMACIÓN METAR y TAF
METAR FOR LETL
ADDS - METARS form results

(0030 UTC 18 June 2021)
Data provider http://aviationweather.gov/metar/data/
 
METAR text: LETL 180000Z AUTO 13005KT CAVOK 14/11 Q1016
Conditions at: LETL (TERUEL , ES) observed 0000 UTC 18 June 2021
Temperature: 14.0°C (57°F)
Dewpoint: 11.0°C (52°F) [RH = 82%]
Pressure (altimeter): 30.00 inches Hg (1016.0 mb)
Winds: from the SE (130 degrees) at 6 MPH (5 knots; 2.6 m/s)
Visibility: 6 or more miles (10+ km)
Ceiling: ceiling and visibility are OK
Clouds: unknown
Weather: no significant weather observed at this time

 MAPA DE AEROPUERTO

 INFORMACIÓN DE PISTA

 FRECUANCIAS DEL AEROPUERTO

 RADIO AYUDAS DEL AEROPUERTO



Powered by Virtual Airlines Manager [v2.6.2]